Keene, NY

5:15 PM EDT on September 01, 2015 (GMT -0400)
Little Crow | | Change Station
CLOSE
Current Station
Personal Weather Station
Location: Keene, NY
Elevation: 1831 ft
Nearby Weather Stations

Elev 1831 ft 44.26 °N, 73.76 °W | Updated 7 seconds ago

Clear
Clear
80.6 °F
Feels Like 81 °F
N
2.5
Wind Variable Wind from WSW
Gusts 3.8 mph

Today
High -- | Low -- °F
--% Chance of Precip.
Yesterday
High -- | Low -- °F
Precip. -- in
6:17 AM 7:31 PM
Waning Gibbous, 86% visible
Pressure 30.03 in
Visibility 10.0 miles
Clouds Clear
Heat Index 81 °F
Dew Point 61 °F
Humidity 51%
Rainfall in
Snow Depth Not available.
UV 3 out of 12
Pollen 8.10 out of 12
Air Quality Not available.
Flu Activity Not available.
METAR KSLK 012051Z AUTO 24006KT 10SM CLR 27/14 A3005 RMK AO2 SLP168 T02720139 56011
Pressure 30.03 in
Visibility 10.0 miles
Clouds Clear
Heat Index 81 °F
Dew Point 61 °F
Humidity 51%
Rainfall in
Snow Depth Not available.
UV 3 out of 12
Pollen 8.10 out of 12
Air Quality Not available.
Flu Activity Not available.
METAR KSLK 012051Z AUTO 24006KT 10SM CLR 27/14 A3005 RMK AO2 SLP168 T02720139 56011

10-Day Weather Forecast

×

Almanac

Astronomy

Sep. 01, 2015 Rise Set
Actual Time
Civil Twilight
Nautical Twilight
Astronomical Twilight
Moon
Length of Visible Light
Length of Day
Tomorrow will be .
, % of the Moon is Illuminated

Today's Extremes

State Highs State Lows

Community

WunderPhotos

Upload Photos

1,851,617 photos uploaded!

WunderBlogs® & News

Nearby

Air Quality

  Air Quality AQ Index Pollutant
Not available.

Snow Depth

Station Depth Elevation

Earthquake Activity

City Distance Mag. Time & Date
Minimum magnitude displayed is 2.5.

Coastal Water Temperatures

Place Temperature

Stations

Nearby Weather Stations

Station Location Temp. Windchill Dew Point Humidity Wind Precip. Elev Updated Type